Time;durP1;ratioP1;P1;durP2;ratioP2;P2;SDS_P1;SDS_P2;PMS_P1;PMS_P2;Temp;Humidity;BMP_temperature;BMP_pressure;BME280_temperature;BME280_humidity;BME280_pressure;Samples;Min_cycle;Max_cycle;Signal;HPM_P1;HPM_P2
2022/05/11 08:01:46;;;;;;;6.57;2.40;;;;;;;17.77;52.01;101023.44;5291105;28;20045;-72
2022/05/11 08:04:17;;;;;;;6.75;2.60;;;;;;;17.88;51.40;101024.75;5281141;28;20017;-71
2022/05/11 08:06:48;;;;;;;7.60;2.45;;;;;;;17.99;51.76;101033.63;5301907;28;20036;-72
2022/05/11 08:09:20;;;;;;;5.20;2.60;;;;;;;17.94;51.26;101028.19;5300358;28;20031;-72
2022/05/11 08:11:52;;;;;;;32.70;26.67;;;;;;;18.09;51.62;101030.44;5301556;28;20020;-72
2022/05/11 08:14:23;;;;;;;5.75;2.53;;;;;;;18.29;51.19;101030.88;5300997;28;20021;-72
2022/05/11 08:16:57;;;;;;;5.63;2.85;;;;;;;18.09;51.02;101027.63;5299867;28;20036;-72
2022/05/11 08:19:29;;;;;;;4.35;2.45;;;;;;;18.20;51.36;101023.31;5280056;28;20064;-70
2022/05/11 08:22:00;;;;;;;4.60;2.47;;;;;;;18.28;50.18;101027.25;5293194;28;20108;-71
2022/05/11 08:24:34;;;;;;;9.30;2.65;;;;;;;18.33;50.66;101031.81;5300286;28;20112;-70
2022/05/11 08:27:09;;;;;;;8.13;2.92;;;;;;;18.49;50.38;101023.69;5300119;28;20510;-72
2022/05/11 08:35:29;;;;;;;5.55;2.67;;;;;;;18.46;49.98;101011.13;5288547;28;20036;-71
2022/05/11 08:38:00;;;;;;;6.72;2.83;;;;;;;18.37;50.50;101015.97;5278794;28;20028;-74
2022/05/11 08:40:34;;;;;;;7.65;2.92;;;;;;;18.43;50.48;101015.44;5293769;28;20405;-73
2022/05/11 08:43:14;;;;;;;5.07;2.75;;;;;;;18.56;50.40;101024.78;5300371;28;20035;-72
2022/05/11 08:46:13;;;;;;;7.93;2.75;;;;;;;18.63;49.47;101025.03;5299501;28;20020;-73
2022/05/11 08:49:07;;;;;;;9.45;4.22;;;;;;;18.63;50.02;101019.44;5297061;28;20102;-73
2022/05/11 08:51:47;;;;;;;8.38;3.75;;;;;;;18.42;50.20;101013.78;5293547;28;20040;-73
2022/05/11 08:54:28;;;;;;;5.80;2.97;;;;;;;18.30;50.81;101016.47;5279206;28;20071;-78
2022/05/11 08:57:01;;;;;;;7.32;2.97;;;;;;;18.47;50.34;101015.56;5279535;28;20440;-76
2022/05/11 08:59:33;;;;;;;7.95;3.00;;;;;;;18.54;50.49;101010.25;5299275;28;20462;-75
2022/05/11 09:02:25;;;;;;;5.57;3.00;;;;;;;18.53;50.33;101010.59;5300634;28;20028;-75
2022/05/11 09:04:59;;;;;;;6.60;2.88;;;;;;;18.77;50.06;100995.94;5300970;28;20379;-74
2022/05/11 09:07:36;;;;;;;6.47;3.05;;;;;;;18.44;50.37;101000.22;5299527;28;20023;-73
2022/05/11 09:10:09;;;;;;;5.88;2.80;;;;;;;18.65;50.05;101005.88;5270927;28;20475;-73
2022/05/11 09:12:40;;;;;;;6.47;3.45;;;;;;;18.75;50.51;101003.84;5285287;28;20421;-73
2022/05/11 09:15:13;;;;;;;5.25;2.70;;;;;;;18.84;50.25;101007.44;5285838;28;20016;-74
2022/05/11 09:17:44;;;;;;;5.28;2.88;;;;;;;18.86;49.88;100999.47;5284346;28;20033;-72
2022/05/11 09:20:20;;;;;;;8.00;3.20;;;;;;;18.95;49.67;101002.25;5284504;28;20456;-73
2022/05/11 09:22:54;;;;;;;;;;;;;;;18.99;50.05;100989.94;5285753;28;20029;-72
2022/05/11 09:25:29;;;;;;;6.38;2.92;;;;;;;19.09;49.80;100986.72;5280026;28;19917;-73
2022/05/11 09:28:25;;;;;;;6.53;3.05;;;;;;;19.30;49.80;100981.09;5284786;28;20029;-72
2022/05/11 09:31:05;;;;;;;9.48;3.42;;;;;;;19.26;49.56;100996.19;5285737;28;20074;-72
2022/05/11 09:33:39;;;;;;;5.65;3.20;;;;;;;19.34;49.38;100996.09;5284504;28;20029;-72
2022/05/11 09:36:11;;;;;;;9.02;3.15;;;;;;;19.44;49.41;101003.28;5288798;28;20071;-72
2022/05/11 09:38:46;;;;;;;4.82;2.63;;;;;;;19.52;49.08;100982.66;5286496;28;20057;-73
2022/05/11 09:41:17;;;;;;;10.38;6.43;;;;;;;19.36;49.27;100984.50;5286869;28;20430;-72
2022/05/11 09:43:55;;;;;;;7.33;3.40;;;;;;;19.55;48.96;100986.78;5288250;28;20040;-72
2022/05/11 09:46:26;;;;;;;6.90;2.78;;;;;;;19.55;48.54;100984.78;5285249;28;20282;-72
2022/05/11 09:49:10;;;;;;;6.23;2.90;;;;;;;19.63;48.94;100976.59;5284292;28;20552;-71
2022/05/11 09:51:54;;;;;;;5.32;3.85;;;;;;;19.72;49.19;100983.81;5284999;28;20032;-71
2022/05/11 09:54:38;;;;;;;8.68;2.95;;;;;;;19.75;49.29;100973.84;5285060;28;20088;-72
2022/05/11 09:57:09;;;;;;;6.72;2.80;;;;;;;19.82;48.95;100973.28;5284963;28;20056;-72
2022/05/11 09:59:43;;;;;;;21.40;11.47;;;;;;;20.00;48.44;100971.06;5278231;28;20025;-73
2022/05/11 10:02:37;;;;;;;16.85;11.68;;;;;;;20.03;48.46;100968.38;5276782;28;20029;-72
2022/05/11 10:05:15;;;;;;;4.97;2.95;;;;;;;19.85;48.74;100970.59;5264142;28;20094;-72
2022/05/11 10:07:56;;;;;;;8.18;3.20;;;;;;;19.97;48.70;100979.03;5273691;28;20031;-72
2022/05/11 10:10:39;;;;;;;9.00;3.50;;;;;;;20.13;48.55;100967.91;5284024;28;20021;-71
2022/05/11 10:13:23;;;;;;;23.80;18.60;;;;;;;20.02;48.54;100968.72;5284620;28;20067;-72
2022/05/11 10:22:24;;;;;;;5.25;3.22;;;;;;;20.08;48.23;100970.13;5245103;28;20132;-70
2022/05/11 10:25:28;;;;;;;7.47;2.90;;;;;;;20.24;47.98;100971.06;5254004;28;20029;-71
2022/05/11 10:28:40;;;;;;;20.85;18.70;;;;;;;20.38;47.88;100967.91;5256466;28;20506;-72
2022/05/11 10:31:34;;;;;;;6.15;3.72;;;;;;;20.58;47.79;100966.97;5262744;28;20082;-72
2022/05/11 10:34:24;;;;;;;10.80;9.45;;;;;;;20.52;47.83;100951.44;5274839;28;20017;-72
2022/05/11 10:37:07;;;;;;;6.93;3.50;;;;;;;20.28;47.58;100954.31;5282877;28;20060;-71
2022/05/11 10:40:18;;;;;;;8.40;3.03;;;;;;;20.56;47.57;100962.88;5284037;28;20047;-71
2022/05/11 10:43:11;;;;;;;9.73;3.70;;;;;;;20.53;46.77;100953.09;5258821;28;20057;-72
2022/05/11 10:45:53;;;;;;;7.43;3.70;;;;;;;20.47;46.56;100942.41;5262808;28;20511;-72
2022/05/11 10:48:45;;;;;;;9.43;3.80;;;;;;;20.57;46.72;100941.97;5264516;28;20025;-71
2022/05/11 10:51:34;;;;;;;46.10;37.63;;;;;;;20.59;46.30;100945.25;5279771;28;20025;-68
2022/05/11 10:54:15;;;;;;;8.73;4.22;;;;;;;20.60;46.46;100950.50;5283012;28;20036;-71
2022/05/11 10:57:25;;;;;;;7.45;4.13;;;;;;;20.60;46.67;100947.69;5262958;28;20124;-71
2022/05/11 11:00:02;;;;;;;8.48;3.50;;;;;;;20.56;46.99;100937.50;5262175;28;20020;-72
2022/05/11 11:02:59;;;;;;;8.90;3.17;;;;;;;20.73;46.36;100933.56;5262867;28;20032;-71
2022/05/11 11:09:06;;;;;;;6.72;3.20;;;;;;;20.87;45.65;100924.75;5263267;28;20120;-71
2022/05/11 11:11:43;;;;;;;6.22;2.85;;;;;;;20.75;45.48;100926.41;5262698;28;20040;-72
2022/05/11 11:14:24;;;;;;;7.22;2.80;;;;;;;20.90;45.72;100929.66;5262080;28;20061;-72
2022/05/11 11:16:57;;;;;;;8.18;3.00;;;;;;;20.84;45.34;100921.47;5262826;28;20025;-72
2022/05/11 11:19:28;;;;;;;6.20;2.67;;;;;;;20.95;45.04;100923.78;5261702;28;20360;-72
2022/05/11 11:22:01;;;;;;;6.80;3.83;;;;;;;21.05;44.78;100909.16;5262802;28;20021;-71
2022/05/11 11:24:34;;;;;;;8.82;3.15;;;;;;;21.08;45.14;100910.44;5262981;28;20365;-72
2022/05/11 11:27:06;;;;;;;7.10;2.83;;;;;;;21.08;44.94;100902.78;5262011;28;20468;-72
2022/05/11 11:29:57;;;;;;;6.93;5.72;;;;;;;21.32;44.80;100915.13;5280907;28;20029;-72
2022/05/11 11:32:29;;;;;;;5.47;2.92;;;;;;;21.51;44.00;100909.63;5282819;28;20094;-72
2022/05/11 11:35:22;;;;;;;7.43;2.83;;;;;;;21.57;43.72;100913.00;5282611;28;20021;-72
2022/05/11 11:38:01;;;;;;;5.93;2.55;;;;;;;21.52;43.01;100905.63;5282926;28;20028;-72
2022/05/11 11:40:34;;;;;;;10.38;3.25;;;;;;;21.61;43.41;100911.09;5282288;28;20103;-72
2022/05/11 11:43:55;;;;;;;4.22;2.35;;;;;;;21.63;42.55;100903.09;5264286;28;20475;-72
2022/05/11 11:46:33;;;;;;;7.07;3.05;;;;;;;21.55;43.04;100892.78;5248995;28;20070;-72
2022/05/11 11:49:16;;;;;;;6.43;2.45;;;;;;;21.71;43.23;100890.81;5261772;28;20129;-71
2022/05/11 11:51:50;;;;;;;8.18;2.75;;;;;;;21.98;42.19;100888.22;5262538;28;20025;-72
2022/05/11 11:54:37;;;;;;;7.88;2.97;;;;;;;21.98;41.62;100897.50;5261307;28;20036;-71
2022/05/11 11:57:14;;;;;;;5.97;2.95;;;;;;;22.00;41.65;100895.16;5262018;28;20052;-72
2022/05/11 11:59:50;;;;;;;7.70;2.47;;;;;;;22.13;41.92;100904.31;5262450;28;20037;-72
2022/05/11 12:02:43;;;;;;;17.20;2.95;;;;;;;21.74;42.04;100894.91;5261142;28;20025;-72
2022/05/11 12:05:29;;;;;;;7.38;3.60;;;;;;;21.97;42.04;100881.75;5262089;28;20020;-71
2022/05/11 12:17:08;;;;;;;9.40;2.88;;;;;;;22.22;41.20;100867.47;5261440;28;20069;-71
2022/05/11 12:19:41;;;;;;;8.75;2.85;;;;;;;22.33;41.18;100874.16;5262308;28;20483;-71
2022/05/11 12:22:18;;;;;;;13.50;6.53;;;;;;;22.62;40.40;100869.13;5261773;28;20107;-71
2022/05/11 12:25:03;;;;;;;5.15;3.13;;;;;;;22.56;40.25;100872.25;5261857;28;20037;-71
2022/05/11 12:27:36;;;;;;;5.90;2.73;;;;;;;22.55;40.20;100861.31;5263708;28;20483;-71
2022/05/11 12:30:15;;;;;;;7.45;2.53;;;;;;;22.71;40.54;100856.41;5281524;28;20024;-73
2022/05/11 12:32:54;;;;;;;7.47;3.10;;;;;;;22.46;39.68;100857.88;5275216;28;20116;-71
2022/05/11 12:35:33;;;;;;;5.35;2.53;;;;;;;22.81;40.02;100859.84;5261968;28;20092;-71
2022/05/11 12:38:10;;;;;;;10.90;3.67;;;;;;;22.87;39.98;100859.16;5263265;28;20032;-71
2022/05/11 12:40:50;;;;;;;6.50;2.30;;;;;;;22.77;40.04;100862.56;5282550;28;20493;-72
2022/05/11 12:43:24;;;;;;;4.30;2.75;;;;;;;22.79;39.90;100858.19;5282114;28;20016;-72
2022/05/11 12:46:22;;;;;;;5.53;2.50;;;;;;;22.94;39.77;100847.97;5285418;28;20021;-70
2022/05/11 12:49:01;;;;;;;7.00;2.90;;;;;;;22.97;39.82;100852.09;5283763;28;20181;-71
2022/05/11 12:51:34;;;;;;;9.90;4.05;;;;;;;23.04;39.52;100846.59;5265053;28;20029;-72
2022/05/11 12:54:08;;;;;;;5.53;2.60;;;;;;;23.10;39.44;100849.94;5270292;28;20360;-70
2022/05/11 12:56:40;;;;;;;7.93;2.97;;;;;;;23.32;39.25;100854.78;5273636;28;20058;-70
2022/05/11 12:59:24;;;;;;;11.50;3.20;;;;;;;23.55;38.78;100856.81;5284991;28;20282;-71
2022/05/11 13:02:16;;;;;;;7.88;2.67;;;;;;;23.60;38.68;100850.84;5285009;28;20036;-73
2022/05/11 13:04:53;;;;;;;8.63;5.07;;;;;;;23.62;38.84;100852.09;5283667;28;20060;-71
2022/05/11 13:07:47;;;;;;;6.20;2.85;;;;;;;23.63;39.05;100836.72;5285153;28;20085;-71
2022/05/11 13:10:29;;;;;;;7.57;3.20;;;;;;;23.73;38.78;100842.97;5285800;28;20392;-71
2022/05/11 13:13:04;;;;;;;6.95;3.10;;;;;;;23.62;38.62;100848.41;5284856;28;20021;-71
2022/05/11 13:15:40;;;;;;;;;;;;;;;23.86;38.68;100839.56;5284232;28;20120;-70
2022/05/11 13:18:22;;;;;;;9.00;3.00;;;;;;;23.81;38.98;100841.91;5285519;28;19912;-70
2022/05/11 13:20:56;;;;;;;6.78;2.92;;;;;;;23.50;39.25;100831.66;5284477;28;20029;-69
2022/05/11 13:23:46;;;;;;;6.95;2.88;;;;;;;23.68;39.18;100829.94;5281061;28;20399;-69
2022/05/11 13:26:35;;;;;;;4.97;2.45;;;;;;;23.68;39.43;100824.28;5263949;28;20033;-69
2022/05/11 13:29:27;;;;;;;7.78;4.32;;;;;;;23.77;39.18;100824.84;5279814;28;20047;-69
2022/05/11 13:32:11;;;;;;;10.55;2.83;;;;;;;24.05;39.16;100826.47;5284920;28;20025;-70
2022/05/11 13:34:42;;;;;;;6.55;2.70;;;;;;;24.20;38.35;100833.16;5284812;28;20024;-71
2022/05/11 13:37:29;;;;;;;12.02;3.15;;;;;;;24.14;38.05;100829.84;5285077;28;20106;-71
2022/05/11 13:40:01;;;;;;;9.02;3.25;;;;;;;24.05;38.24;100832.13;5283486;28;20040;-70
2022/05/11 13:42:32;;;;;;;11.95;3.60;;;;;;;24.09;38.26;100833.00;5264327;28;20048;-70
2022/05/11 13:45:08;;;;;;;5.93;2.45;;;;;;;24.08;38.00;100820.03;5264461;28;20033;-70
2022/05/11 13:50:35;;;;;;;8.35;2.55;;;;;;;24.39;38.14;100821.69;5285825;28;20108;-69
2022/05/11 13:53:12;;;;;;;8.07;2.85;;;;;;;24.38;38.33;100816.41;5285062;28;20095;-70
2022/05/11 13:56:09;;;;;;;8.65;2.40;;;;;;;24.43;38.80;100810.41;5284194;28;20025;-69
2022/05/11 13:58:49;;;;;;;9.60;2.60;;;;;;;24.39;38.10;100813.19;5276913;28;20051;-69
2022/05/11 14:01:24;;;;;;;10.02;3.70;;;;;;;24.44;37.92;100817.69;5284096;28;20024;-69
2022/05/11 14:03:58;;;;;;;9.70;3.05;;;;;;;24.42;37.84;100812.41;5284927;28;20031;-70
2022/05/11 14:06:52;;;;;;;10.32;3.10;;;;;;;24.56;38.01;100822.31;5284712;28;20021;-70
2022/05/11 14:09:24;;;;;;;10.70;3.00;;;;;;;24.25;38.48;100827.16;5284283;28;20118;-72
2022/05/11 14:11:55;;;;;;;8.30;2.92;;;;;;;23.93;38.51;100810.53;5284436;28;20090;-71
2022/05/11 14:14:26;;;;;;;6.88;2.25;;;;;;;23.91;38.86;100815.75;5279968;28;20029;-72
2022/05/11 14:17:00;;;;;;;9.27;3.10;;;;;;;24.11;38.96;100802.28;5263061;28;20028;-72
2022/05/11 14:19:35;;;;;;;5.65;2.67;;;;;;;24.17;38.57;100809.25;5263767;28;20424;-72
2022/05/11 14:22:07;;;;;;;;;;;;;;;24.26;38.86;100814.63;5263422;28;20025;-72
2022/05/11 14:24:40;;;;;;;19.17;10.90;;;;;;;23.70;39.42;100799.22;5269400;28;20420;-73
2022/05/11 14:27:12;;;;;;;9.23;2.65;;;;;;;23.71;39.63;100806.50;5283900;28;20107;-71
2022/05/11 14:29:48;;;;;;;5.65;2.38;;;;;;;23.96;39.23;100801.28;5282668;28;20143;-72
2022/05/11 14:32:36;;;;;;;11.57;3.05;;;;;;;24.08;39.43;100786.88;5272517;28;20537;-71
2022/05/11 14:35:11;;;;;;;10.18;2.70;;;;;;;24.22;39.18;100794.75;5292751;28;20023;-72
2022/05/11 14:37:43;;;;;;;5.72;2.50;;;;;;;24.18;38.58;100801.56;5283950;28;20138;-72
2022/05/11 14:40:23;;;;;;;5.40;2.78;;;;;;;24.16;38.70;100778.44;5284008;28;20071;-71
2022/05/11 14:42:54;;;;;;;4.55;2.42;;;;;;;24.09;39.04;100782.03;5283432;28;20032;-70
2022/05/11 14:45:26;;;;;;;6.18;3.08;;;;;;;24.14;38.97;100776.03;5283895;28;20167;-70
2022/05/11 14:48:03;;;;;;;7.88;3.75;;;;;;;24.03;39.50;100783.53;5286209;28;20027;-71
2022/05/11 14:50:34;;;;;;;9.13;3.08;;;;;;;24.12;39.89;100777.59;5294462;28;20458;-72
2022/05/11 14:53:06;;;;;;;9.77;2.83;;;;;;;24.04;38.52;100768.19;5304915;28;20016;-72
2022/05/11 14:55:37;;;;;;;13.50;9.25;;;;;;;24.12;39.15;100757.78;5283609;28;20029;-72
2022/05/11 15:03:50;;;;;;;6.28;2.55;;;;;;;24.02;38.56;100759.25;5283881;28;20037;-71
2022/05/11 15:06:21;;;;;;;5.30;2.88;;;;;;;24.02;38.89;100764.94;5277461;28;20021;-72
2022/05/11 15:08:52;;;;;;;9.25;2.92;;;;;;;24.00;38.78;100772.97;5283490;28;20547;-71
2022/05/11 15:14:14;;;;;;;6.47;3.70;;;;;;;23.80;38.96;100747.66;5283490;28;20035;-72
2022/05/11 15:16:45;;;;;;;10.73;3.10;;;;;;;23.89;38.64;100749.38;5283338;28;20020;-71
2022/05/11 15:19:16;;;;;;;8.32;2.95;;;;;;;23.96;38.78;100743.81;5282856;28;20028;-72
2022/05/11 15:21:49;;;;;;;13.32;2.85;;;;;;;23.78;39.19;100747.22;5283023;28;20024;-70
2022/05/11 15:24:20;;;;;;;10.00;3.42;;;;;;;23.82;39.16;100753.72;5281986;28;20020;-72
2022/05/11 15:26:51;;;;;;;8.90;2.90;;;;;;;23.78;39.06;100744.38;5292083;28;20086;-72
2022/05/11 15:29:23;;;;;;;10.25;3.67;;;;;;;23.75;39.44;100738.63;5287518;28;20032;-71
2022/05/11 15:31:55;;;;;;;8.02;3.13;;;;;;;23.84;39.24;100742.03;5301499;28;20024;-71
2022/05/11 15:34:29;;;;;;;8.60;2.30;;;;;;;23.80;39.40;100747.66;5299218;28;20149;-72
2022/05/11 15:37:01;;;;;;;14.83;6.30;;;;;;;23.90;39.40;100734.00;5282497;28;20573;-71
2022/05/11 15:39:32;;;;;;;6.18;2.67;;;;;;;23.78;39.41;100733.03;5276847;28;20024;-71
2022/05/11 15:42:04;;;;;;;11.88;3.13;;;;;;;23.59;39.51;100742.44;5263573;28;20099;-71
2022/05/11 15:44:37;;;;;;;4.57;2.35;;;;;;;23.53;39.16;100738.31;5282282;28;20040;-72
2022/05/11 15:47:09;;;;;;;6.53;2.38;;;;;;;23.54;39.04;100739.09;5282507;28;20475;-71
2022/05/11 15:49:40;;;;;;;8.30;2.83;;;;;;;23.43;39.43;100734.09;5283250;28;20033;-70
2022/05/11 15:52:15;;;;;;;10.18;3.47;;;;;;;23.48;39.26;100754.78;5286447;28;20116;-80
2022/05/11 15:54:47;;;;;;;11.00;3.28;;;;;;;23.48;39.59;100746.31;5302778;28;20364;-69
2022/05/11 15:57:21;;;;;;;8.88;3.13;;;;;;;23.58;39.49;100737.97;5295811;28;20074;-72
2022/05/11 15:59:52;;;;;;;10.48;2.72;;;;;;;23.82;39.66;100752.91;5289294;28;20118;-71
2022/05/11 16:02:26;;;;;;;6.75;2.85;;;;;;;23.79;39.11;100748.81;5292638;28;20617;-72
2022/05/11 16:04:58;;;;;;;10.98;3.00;;;;;;;23.79;39.22;100742.34;5304410;28;20024;-72
2022/05/11 16:07:29;;;;;;;14.30;7.35;;;;;;;23.80;38.97;100747.66;5283153;28;20047;-72
2022/05/11 16:10:01;;;;;;;9.23;4.05;;;;;;;23.97;39.08;100736.94;5283093;28;20028;-72
2022/05/11 16:12:32;;;;;;;8.45;2.47;;;;;;;23.90;38.80;100745.31;5286466;28;20376;-72
2022/05/11 16:15:07;;;;;;;10.05;2.55;;;;;;;23.84;38.67;100734.34;5264154;28;20079;-73
2022/05/11 16:20:29;;;;;;;6.72;2.20;;;;;;;23.74;38.84;100735.00;5308633;28;20040;-73
2022/05/11 16:23:00;;;;;;;8.88;2.55;;;;;;;23.73;39.28;100736.22;5307269;28;20031;-73
2022/05/11 16:25:35;;;;;;;9.60;2.60;;;;;;;23.63;38.79;100736.84;5308369;28;20032;-73
2022/05/11 16:28:09;;;;;;;9.32;3.22;;;;;;;23.60;39.01;100729.94;5301876;28;20020;-72
2022/05/11 16:30:41;;;;;;;13.15;3.00;;;;;;;23.63;39.00;100734.00;5279888;28;20070;-72
2022/05/11 16:33:13;;;;;;;5.70;2.20;;;;;;;23.60;39.13;100727.09;5266126;28;20017;-72
2022/05/11 16:35:44;;;;;;;8.52;2.50;;;;;;;23.77;39.13;100722.91;5265822;28;20191;-71
2022/05/11 16:38:16;;;;;;;5.75;2.35;;;;;;;23.77;39.13;100722.91;5265893;28;20100;-72
2022/05/11 16:40:47;;;;;;;8.15;2.55;;;;;;;23.60;39.18;100729.94;5266014;28;20113;-69
2022/05/11 16:43:18;;;;;;;5.00;1.90;;;;;;;23.52;39.31;100727.34;5264994;28;20017;-70
2022/05/11 16:45:51;;;;;;;5.00;2.15;;;;;;;23.50;39.33;100732.59;5266087;28;20046;-70
2022/05/11 16:48:24;;;;;;;6.20;1.80;;;;;;;23.39;39.30;100732.41;5266371;28;20028;-70
2022/05/11 16:50:55;;;;;;;8.25;2.85;;;;;;;23.49;39.36;100734.59;5265026;28;20409;-72
2022/05/11 16:53:27;;;;;;;10.25;2.63;;;;;;;23.40;39.18;100737.69;5265558;28;20102;-72
2022/05/11 16:55:59;;;;;;;8.13;2.53;;;;;;;23.52;39.20;100731.03;5265562;28;20383;-71
2022/05/11 16:58:30;;;;;;;5.55;2.42;;;;;;;23.42;38.76;100740.97;5264529;28;20045;-72
2022/05/11 17:01:03;;;;;;;6.93;2.38;;;;;;;23.42;38.68;100740.97;5265554;28;20025;-72
2022/05/11 17:03:35;;;;;;;20.35;9.98;;;;;;;23.16;38.96;100746.56;5264682;28;20029;-72
2022/05/11 17:06:07;;;;;;;7.65;2.35;;;;;;;23.31;38.75;100747.63;5265360;28;20036;-72
2022/05/11 17:08:38;;;;;;;9.57;2.50;;;;;;;23.22;39.01;100747.91;5266246;28;20082;-72
2022/05/11 17:11:11;;;;;;;8.55;2.65;;;;;;;23.46;38.88;100746.66;5285493;28;20024;-71
2022/05/11 17:13:42;;;;;;;5.45;2.58;;;;;;;23.21;39.56;100749.94;5285615;28;20046;-72
2022/05/11 17:16:14;;;;;;;9.20;3.33;;;;;;;23.04;40.42;100744.78;5285973;28;20032;-71
2022/05/11 17:18:45;;;;;;;15.38;4.15;;;;;;;23.11;40.91;100752.56;5284798;28;20476;-71
2022/05/11 17:21:16;;;;;;;12.48;3.42;;;;;;;22.66;41.31;100754.94;5283110;28;20476;-72
2022/05/11 17:23:48;;;;;;;11.77;3.22;;;;;;;22.57;41.58;100752.38;5264921;28;20246;-72
2022/05/11 17:26:21;;;;;;;5.00;2.40;;;;;;;22.54;41.57;100755.94;5264195;28;20081;-72
2022/05/11 17:28:52;;;;;;;11.02;3.60;;;;;;;22.36;42.39;100751.94;5264846;28;20407;-71
